Norbeck, South Dakota
Current Conditions -  °F | °C
As of 8:53 PM on Tuesday 21 Oct 2014 (Local Time) from KABR Reporting Station
Clear Clear  
Wind Chill: 66°   Ceiling: Unl
Heat Index: 66°   Visibility: 10mi
Dew Point: 45°   Wind: 18mph
Humidity: 47%   Direction: 150°SSE
Pressure: 29.85"   Gusts: NA
Location:  45.0672°N, 99.0996°W
Report Text: KABR 220153Z AUTO 15016KT 10SM CLR 19/07 A2985 RMK AO2 SLP108 T01890072
Loading
Personal Weather Stations






























Interactive Weather Map
Tropical Storm Tracking
New forecast layout! Learn more

10-Day Weather Forecast

Advertisements
Track Severe Weather on mobile